createdAt,value
2022-12-01T01:46:34.816Z,94.03
2022-12-01T01:46:39.912Z,93.43
2022-12-01T01:47:39.919Z,92.91
2022-12-01T01:48:39.909Z,93.12
2022-12-01T01:49:39.878Z,92.40
2022-12-01T03:06:51.279Z,92.29
2022-12-01T04:49:07.704Z,91.82
2022-12-01T04:49:12.812Z,88.45
2022-12-01T04:50:12.830Z,88.65
2022-12-01T04:51:12.829Z,88.55
2022-12-01T04:52:12.756Z,87.83
2022-12-01T04:53:12.777Z,88.04
2022-12-01T05:32:24.697Z,88.14
2022-12-01T05:32:29.797Z,90.19
2022-12-01T05:33:29.753Z,90.29
2022-12-01T05:34:29.834Z,90.19
2022-12-01T05:35:29.826Z,90.60
2022-12-01T05:36:29.729Z,90.29
2022-12-01T05:37:29.715Z,90.39
2022-12-01T05:38:29.694Z,90.39
2022-12-01T05:39:29.690Z,90.60
2022-12-01T05:40:29.664Z,91.01
2022-12-01T05:41:29.632Z,91.22
2022-12-01T05:42:29.677Z,90.91
2022-12-01T05:43:29.900Z,91.11
2022-12-01T05:44:29.671Z,91.53
2022-12-01T05:45:29.695Z,91.63
2022-12-01T05:46:29.575Z,91.63
2022-12-01T05:47:29.622Z,91.53
2022-12-01T05:48:29.631Z,92.36
2022-12-01T05:49:29.589Z,92.67
2022-12-01T05:50:29.583Z,93.08
2022-12-01T05:51:29.597Z,92.36
2022-12-01T05:52:29.554Z,93.29
2022-12-01T05:53:29.611Z,93.49
2022-12-01T05:54:29.478Z,92.77
2022-12-01T05:55:29.544Z,92.77
2022-12-01T05:56:29.547Z,93.08
2022-12-01T05:57:29.527Z,92.25
2022-12-01T05:58:29.511Z,91.42
2022-12-01T05:59:29.563Z,91.01
2022-12-01T06:00:29.485Z,91.22
2022-12-01T06:01:29.501Z,91.11
2022-12-01T06:02:29.480Z,91.42
2022-12-01T06:03:29.387Z,91.36
2022-12-01T06:04:29.567Z,91.99
2022-12-01T06:05:29.403Z,91.99
2022-12-01T06:06:29.420Z,91.67
2022-12-01T06:07:29.435Z,92.09
2022-12-01T06:08:29.390Z,92.50
2022-12-01T06:09:29.412Z,92.77
2022-12-01T06:10:29.482Z,92.15
2022-12-01T06:11:29.373Z,91.53
2022-12-01T06:12:29.359Z,90.80
2022-12-01T06:13:29.328Z,91.11
2022-12-01T06:14:29.343Z,91.05
2022-12-01T06:15:29.352Z,90.91
2022-12-01T06:16:29.340Z,91.01
2022-12-01T06:17:29.306Z,91.26
2022-12-01T06:18:29.325Z,91.22
2022-12-01T06:19:29.285Z,91.11
2022-12-01T06:20:29.323Z,91.05
2022-12-01T06:21:29.315Z,91.26
2022-12-01T06:22:29.279Z,91.11
2022-12-01T06:23:30.743Z,90.70
2022-12-01T06:24:29.236Z,90.29
2022-12-01T06:25:29.268Z,89.36
2022-12-01T06:26:30.580Z,90.08
2022-12-01T06:27:30.569Z,90.08
2022-12-01T08:43:57.027Z,89.77
2022-12-01T10:59:17.584Z,89.81
2022-12-01T10:59:24.039Z,78.98
2022-12-01T13:07:44.355Z,78.77
2022-12-01T15:14:02.210Z,81.28
2022-12-01T15:14:09.257Z,79.08
2022-12-01T15:15:09.152Z,79.59
2022-12-01T15:16:16.547Z,79.90
2022-12-01T15:17:08.128Z,79.69
2022-12-01T15:18:07.922Z,79.80
2022-12-01T15:19:08.999Z,80.04
2022-12-01T15:20:08.992Z,80.46
2022-12-01T15:21:09.071Z,80.46
2022-12-01T17:00:20.899Z,80.46
2022-12-01T17:00:26.518Z,80.84
2022-12-01T19:16:39.533Z,81.67
2022-12-01T19:16:46.076Z,79.91
2022-12-01T21:32:57.152Z,81.46
2022-12-01T21:33:03.558Z,80.15
2022-12-01T23:10:15.912Z,79.94
2022-12-01T23:10:22.999Z,82.04
2022-12-01T23:11:22.434Z,81.01
2022-12-01T23:12:21.707Z,81.35
2022-12-01T23:13:22.310Z,81.52
2022-12-01T23:14:22.441Z,81.46
2022-12-01T23:15:21.870Z,81.46
2022-12-01T23:16:22.019Z,81.25
2022-12-01T23:17:22.097Z,81.35
2022-12-01T23:18:23.145Z,83.42
2022-12-01T23:19:24.392Z,84.63
2022-12-01T23:20:23.386Z,83.18
2022-12-01T23:21:22.262Z,81.32
2022-12-01T23:22:21.900Z,81.05
2022-12-01T23:23:24.113Z,81.77
2022-12-01T23:24:22.760Z,82.08
